createdAt,value
2022-09-05T00:09:19.403Z,12.41
2022-09-05T00:24:23.042Z,12.35
2022-09-05T00:31:07.158Z,12.30
2022-09-05T00:40:43.857Z,12.17
2022-09-05T00:51:21.827Z,11.98
2022-09-05T01:01:49.527Z,11.80
2022-09-05T01:12:07.343Z,11.66
2022-09-05T01:22:37.097Z,11.53
2022-09-05T01:32:58.754Z,11.37
2022-09-05T01:43:25.680Z,11.23
2022-09-05T01:53:43.726Z,11.04
2022-09-05T02:03:54.614Z,10.90
2022-09-05T02:14:08.957Z,10.76
2022-09-05T02:24:23.199Z,10.68
2022-09-05T02:34:39.197Z,10.66
2022-09-05T02:45:25.680Z,10.64
2022-09-05T02:57:39.948Z,10.60
2022-09-05T03:06:34.356Z,10.62
2022-09-05T03:17:06.733Z,10.61
2022-09-05T03:38:11.094Z,10.62
2022-09-05T03:48:37.966Z,10.59
2022-09-05T03:59:09.759Z,10.59
2022-09-05T04:09:43.302Z,10.59
2022-09-05T04:19:53.667Z,10.57
2022-09-05T04:30:34.835Z,10.68
2022-09-05T04:40:46.903Z,10.82
2022-09-05T04:51:11.445Z,10.99
2022-09-05T05:06:00.770Z,11.20
2022-09-05T05:17:23.889Z,11.51
2022-09-05T05:22:23.349Z,13.42
2022-09-05T05:32:45.195Z,20.58
2022-09-05T05:42:52.825Z,26.23
2022-09-05T05:53:31.961Z,30.01
2022-09-05T06:04:21.854Z,32.63
2022-09-05T06:15:11.498Z,33.84
2022-09-05T06:25:52.250Z,35.23
2022-09-05T06:36:08.216Z,35.85
2022-09-05T06:46:55.014Z,37.47
2022-09-05T06:57:14.725Z,39.16
2022-09-05T07:07:27.912Z,39.70
2022-09-05T07:18:08.917Z,39.59
2022-09-05T07:28:28.950Z,41.58
2022-09-05T07:38:52.329Z,43.24
2022-09-05T07:49:05.736Z,43.47
2022-09-05T07:59:14.330Z,42.70
2022-09-05T08:10:06.050Z,43.41
2022-09-05T08:20:08.957Z,44.41
2022-09-05T08:30:26.449Z,44.41
2022-09-05T08:40:37.301Z,41.72
2022-09-05T08:51:04.316Z,31.57
2022-09-05T09:01:19.210Z,26.70
2022-09-05T09:11:34.349Z,24.81
2022-09-05T09:21:52.791Z,23.68
2022-09-05T09:32:07.682Z,22.24
2022-09-05T09:42:34.263Z,21.80
2022-09-05T09:53:06.887Z,21.25
2022-09-05T10:10:32.817Z,20.81
2022-09-05T10:14:50.603Z,20.54
2022-09-05T10:25:20.260Z,20.18
2022-09-05T10:35:32.599Z,19.76
2022-09-05T10:45:49.679Z,19.43
2022-09-05T10:56:12.482Z,19.34
2022-09-05T11:06:24.862Z,19.23
2022-09-05T11:16:40.254Z,19.12
2022-09-05T11:27:23.229Z,19.10
2022-09-05T11:39:56.264Z,19.08
2022-09-05T11:48:20.890Z,19.22
2022-09-05T11:58:48.459Z,19.29
2022-09-05T12:09:02.532Z,19.20
2022-09-05T12:19:26.921Z,19.19
2022-09-05T12:29:45.558Z,19.14
2022-09-05T12:41:39.082Z,19.12
2022-09-05T12:50:33.330Z,19.14
2022-09-05T13:03:12.459Z,19.15
2022-09-05T13:14:47.882Z,19.17
2022-09-05T13:21:44.591Z,19.15
2022-09-05T13:38:03.339Z,19.16
2022-09-05T13:42:45.447Z,19.18
2022-09-05T13:52:57.230Z,19.15
2022-09-05T14:03:43.275Z,19.14
2022-09-05T14:14:11.245Z,19.15
2022-09-05T14:24:17.226Z,19.22
2022-09-05T14:37:40.628Z,19.23
2022-09-05T14:46:00.377Z,19.18
2022-09-05T14:57:11.557Z,19.10
2022-09-05T15:06:38.126Z,19.10
2022-09-05T15:17:01.276Z,19.07
2022-09-05T15:27:16.894Z,18.98
2022-09-05T15:37:31.360Z,18.92
2022-09-05T15:47:39.582Z,18.77
2022-09-05T15:57:46.728Z,18.67
2022-09-05T16:10:41.557Z,18.54
2022-09-05T16:23:16.885Z,18.37
2022-09-05T16:28:58.008Z,18.19
2022-09-05T16:39:08.925Z,18.04
2022-09-05T16:49:29.677Z,17.75
2022-09-05T16:59:47.795Z,17.37
2022-09-05T17:09:53.814Z,16.97
2022-09-05T17:20:07.070Z,16.56
2022-09-05T17:41:10.624Z,15.84
2022-09-05T17:51:38.355Z,15.55
2022-09-05T18:02:29.853Z,15.23
2022-09-05T18:13:13.458Z,15.00
2022-09-05T18:23:39.622Z,14.79
2022-09-05T18:34:38.195Z,14.62
2022-09-05T18:44:49.539Z,14.44
2022-09-05T18:55:30.161Z,14.31
2022-09-05T19:05:41.792Z,14.17
2022-09-05T19:16:03.669Z,14.06
2022-09-05T19:26:22.223Z,13.99
2022-09-05T19:36:55.591Z,13.86
2022-09-05T19:47:44.059Z,13.72
2022-09-05T19:57:25.659Z,13.56
2022-09-05T20:07:33.238Z,13.48
2022-09-05T20:17:43.145Z,13.35
2022-09-05T20:27:50.590Z,13.22
2022-09-05T20:43:15.901Z,13.07
2022-09-05T20:54:07.911Z,12.86
2022-09-05T20:58:55.663Z,12.79
2022-09-05T21:09:25.318Z,12.80
2022-09-05T21:19:33.822Z,12.79
2022-09-05T21:29:40.059Z,12.72
2022-09-05T21:39:59.436Z,12.54
2022-09-05T21:50:07.555Z,12.34
2022-09-05T22:00:20.531Z,12.14
2022-09-05T22:10:35.441Z,11.84
2022-09-05T22:21:31.961Z,11.83
2022-09-05T22:31:20.573Z,11.76
2022-09-05T22:41:30.191Z,11.72
2022-09-05T22:51:37.184Z,11.70
2022-09-05T23:01:43.812Z,11.70
2022-09-05T23:11:49.748Z,11.62
2022-09-05T23:21:55.647Z,11.42
2022-09-05T23:32:01.483Z,11.26
2022-09-05T23:42:07.542Z,11.11
2022-09-05T23:52:13.474Z,10.95
